Time;durP1;ratioP1;P1;durP2;ratioP2;P2;SDS_P1;SDS_P2;PMS_P1;PMS_P2;Temp;Humidity;BMP_temperature;BMP_pressure;BME280_temperature;BME280_humidity;BME280_pressure;Samples;Min_cycle;Max_cycle;Signal;HPM_P1;HPM_P2
2023/07/19 00:00:40;;;;;;;10.15;7.32;;;;;;;23.06;63.60;99352.91;4949438;28;20484;-89
2023/07/19 00:03:05;;;;;;;12.10;6.93;;;;;;;22.97;64.74;99348.34;4964218;28;20053;-90
2023/07/19 00:05:31;;;;;;;10.13;7.10;;;;;;;22.91;64.54;99343.44;4948498;28;20081;-89
2023/07/19 00:08:04;;;;;;;10.93;6.75;;;;;;;22.90;64.17;99348.13;4980752;28;20034;-89
2023/07/19 00:10:30;;;;;;;12.85;7.30;;;;;;;22.90;64.62;99339.91;4979976;28;20495;-89
2023/07/19 00:12:56;;;;;;;10.98;7.03;;;;;;;22.91;64.18;99349.75;4965656;28;20026;-89
2023/07/19 00:15:23;;;;;;;14.07;7.78;;;;;;;22.87;64.58;99346.13;4980826;28;20032;-88
2023/07/19 00:17:49;;;;;;;14.82;7.15;;;;;;;22.90;64.53;99350.09;4964990;28;20034;-89
2023/07/19 00:20:15;;;;;;;12.40;7.53;;;;;;;22.80;65.31;99343.16;4964930;28;20007;-89
2023/07/19 00:22:44;;;;;;;14.30;7.38;;;;;;;22.79;65.18;99336.09;4980447;28;20030;-89
2023/07/19 00:25:10;;;;;;;11.23;8.00;;;;;;;22.85;64.85;99347.59;4981612;28;20026;-89
2023/07/19 00:27:36;;;;;;;9.75;7.22;;;;;;;22.74;65.04;99336.31;4981053;28;20023;-89
2023/07/19 00:30:06;;;;;;;19.30;7.57;;;;;;;22.69;65.07;99342.09;4947185;28;20480;-89
2023/07/19 00:32:32;;;;;;;15.77;7.15;;;;;;;22.72;64.27;99339.44;4981980;28;20018;-88
2023/07/19 00:35:06;;;;;;;10.77;6.90;;;;;;;22.51;63.94;99312.19;4963956;28;20049;-89
2023/07/19 00:37:32;;;;;;;12.45;7.00;;;;;;;22.63;63.88;99319.56;4980523;28;20038;-89
2023/07/19 00:39:58;;;;;;;7.85;6.13;;;;;;;22.60;63.34;99326.56;4964248;28;20068;-89
2023/07/19 00:42:24;;;;;;;11.48;6.57;;;;;;;22.63;63.69;99327.03;4964681;28;20121;-89
2023/07/19 00:44:49;;;;;;;9.35;6.72;;;;;;;22.53;63.26;99309.88;4964189;28;20603;-89
2023/07/19 00:47:18;;;;;;;11.75;7.35;;;;;;;22.55;62.59;99309.56;4963980;28;20077;-89
2023/07/19 00:49:47;;;;;;;10.02;6.70;;;;;;;22.73;61.69;99321.03;4981399;28;20033;-89
2023/07/19 00:52:13;;;;;;;13.25;7.15;;;;;;;22.80;61.77;99312.97;4948591;28;20088;-88
2023/07/19 00:54:40;;;;;;;8.90;6.85;;;;;;;22.70;62.60;99316.22;4964657;28;20073;-89
2023/07/19 00:57:06;;;;;;;10.38;6.88;;;;;;;22.43;62.83;99306.84;4963310;28;20022;-89
2023/07/19 00:59:32;;;;;;;12.75;6.82;;;;;;;22.38;63.58;99313.41;4963822;28;20022;-89
2023/07/19 01:01:58;;;;;;;8.13;6.32;;;;;;;22.42;63.62;99317.03;4948020;28;20042;-89
2023/07/19 01:04:25;;;;;;;9.30;6.35;;;;;;;22.35;63.65;99317.66;4948250;28;20029;-89
2023/07/19 01:06:51;;;;;;;11.52;6.43;;;;;;;22.50;63.33;99318.84;4965146;28;20156;-89
2023/07/19 01:09:17;;;;;;;9.82;6.43;;;;;;;22.53;63.63;99322.81;4963948;28;20058;-89
2023/07/19 01:11:42;;;;;;;9.95;7.35;;;;;;;22.51;62.85;99303.16;4979921;28;20035;-89
2023/07/19 01:14:08;;;;;;;11.82;7.65;;;;;;;22.54;62.47;99300.53;4948261;28;20031;-89
2023/07/19 01:16:35;;;;;;;12.50;6.82;;;;;;;22.73;61.86;99321.81;4979642;28;20516;-89
2023/07/19 01:19:02;;;;;;;10.82;6.22;;;;;;;22.60;62.90;99331.28;4963505;28;20093;-88
2023/07/19 01:21:28;;;;;;;18.50;7.68;;;;;;;22.43;63.72;99340.56;4979406;28;20034;-89
2023/07/19 01:23:55;;;;;;;10.07;6.78;;;;;;;22.44;63.37;99341.41;4962883;28;20018;-89
2023/07/19 01:26:21;;;;;;;8.88;6.47;;;;;;;22.38;63.71;99349.84;4964117;28;20027;-89
2023/07/19 01:28:47;;;;;;;10.18;6.68;;;;;;;22.30;63.87;99341.78;4947465;28;20042;-90
2023/07/19 01:31:15;;;;;;;11.57;6.93;;;;;;;22.25;63.75;99336.53;4966785;28;20057;-89
2023/07/19 01:33:42;;;;;;;13.20;7.32;;;;;;;22.17;64.31;99327.28;4983724;28;20030;-90
2023/07/19 01:36:08;;;;;;;14.23;8.52;;;;;;;22.20;64.32;99345.75;4951405;28;20022;-89
2023/07/19 01:38:35;;;;;;;15.35;8.23;;;;;;;22.08;64.55;99332.06;4968159;28;20030;-89
2023/07/19 01:41:01;;;;;;;16.20;8.80;;;;;;;22.19;64.15;99339.47;4968171;28;20022;-89
2023/07/19 01:43:26;;;;;;;8.98;6.93;;;;;;;22.02;65.26;99331.53;4968122;28;20033;-89
2023/07/19 01:45:52;;;;;;;10.88;7.10;;;;;;;22.10;64.72;99335.28;4951374;28;20489;-89
2023/07/19 01:48:17;;;;;;;9.85;7.55;;;;;;;22.11;65.01;99332.19;4966856;28;20030;-89
2023/07/19 01:50:47;;;;;;;10.48;6.28;;;;;;;22.05;65.41;99328.09;4984449;28;20034;-89
2023/07/19 01:53:12;;;;;;;14.05;6.07;;;;;;;21.94;64.78;99316.03;4966471;28;20122;-89
2023/07/19 01:55:39;;;;;;;9.75;6.03;;;;;;;21.90;64.78;99306.88;4966834;28;20034;-88
2023/07/19 01:58:05;;;;;;;13.85;6.15;;;;;;;21.86;65.50;99303.25;4967920;28;20038;-89
2023/07/19 02:00:30;;;;;;;9.27;5.88;;;;;;;21.86;65.07;99314.22;4951860;28;20450;-89
2023/07/19 02:02:56;;;;;;;8.43;6.20;;;;;;;21.79;65.38;99312.84;4966726;28;20045;-89
2023/07/19 02:05:21;;;;;;;10.05;6.15;;;;;;;21.85;64.39;99313.41;4950879;28;20023;-89
2023/07/19 02:07:47;;;;;;;10.20;6.10;;;;;;;21.86;65.36;99325.97;4966148;28;20077;-89
2023/07/19 02:10:13;;;;;;;11.90;6.47;;;;;;;21.82;65.12;99333.28;4967369;28;20054;-89
2023/07/19 02:12:40;;;;;;;12.05;6.90;;;;;;;21.79;64.67;99317.53;4982206;28;20389;-89
2023/07/19 02:15:06;;;;;;;9.63;5.88;;;;;;;21.93;64.80;99331.66;4966344;28;20130;-89
2023/07/19 02:17:31;;;;;;;11.43;6.20;;;;;;;21.86;65.84;99334.19;4966850;28;20081;-89
2023/07/19 02:19:57;;;;;;;9.88;5.60;;;;;;;21.81;65.81;99334.44;4967056;28;20124;-89
2023/07/19 02:22:23;;;;;;;9.10;6.00;;;;;;;21.81;65.87;99334.44;4966326;28;20409;-89
2023/07/19 02:24:48;;;;;;;9.10;6.05;;;;;;;21.80;64.91;99327.34;4984101;28;20022;-89
2023/07/19 02:27:14;;;;;;;13.63;6.32;;;;;;;21.82;65.38;99330.53;4950810;28;20026;-89
2023/07/19 02:29:39;;;;;;;12.75;6.30;;;;;;;21.74;64.81;99324.03;4966663;28;20022;-89
2023/07/19 02:32:05;;;;;;;9.07;6.53;;;;;;;21.83;65.17;99328.59;4950457;28;20082;-89
2023/07/19 02:34:34;;;;;;;10.25;5.88;;;;;;;21.87;64.66;99329.50;4966822;28;20029;-89
2023/07/19 02:37:00;;;;;;;11.55;5.82;;;;;;;21.79;65.59;99334.78;4983714;28;20010;-89
2023/07/19 02:39:29;;;;;;;8.57;5.95;;;;;;;21.72;65.80;99331.00;4980756;28;20038;-89
2023/07/19 02:41:57;;;;;;;9.32;5.90;;;;;;;21.85;65.21;99331.78;4998560;28;20408;-89
2023/07/19 02:44:23;;;;;;;10.35;5.95;;;;;;;21.69;65.65;99320.75;4967468;28;20019;-89
2023/07/19 02:46:49;;;;;;;12.20;6.70;;;;;;;21.65;66.32;99323.38;4966644;28;20443;-89
2023/07/19 02:49:16;;;;;;;9.43;6.18;;;;;;;21.50;65.96;99313.09;4950959;28;20073;-89
2023/07/19 02:51:42;;;;;;;9.73;6.10;;;;;;;21.58;65.68;99329.44;4967029;28;20113;-89
2023/07/19 02:54:08;;;;;;;9.32;6.00;;;;;;;21.51;65.44;99314.69;4966886;28;20047;-90
2023/07/19 02:56:33;;;;;;;7.68;6.07;;;;;;;21.77;65.05;99336.25;4967116;28;20050;-89
2023/07/19 02:58:59;;;;;;;9.65;6.03;;;;;;;21.79;64.83;99339.47;4966157;28;20026;-90
2023/07/19 03:01:25;;;;;;;11.15;6.18;;;;;;;21.64;65.00;99324.50;4982303;28;20042;-89
2023/07/19 03:03:51;;;;;;;10.93;5.90;;;;;;;21.64;64.97;99319.00;4966075;28;20117;-89
2023/07/19 03:06:18;;;;;;;8.70;5.70;;;;;;;21.55;65.63;99326.56;4949065;28;20188;-89
2023/07/19 03:08:46;;;;;;;10.68;6.57;;;;;;;21.50;64.69;99333.09;4982653;28;20412;-89
2023/07/19 03:11:13;;;;;;;12.30;6.32;;;;;;;21.36;65.33;99330.63;4998854;28;20031;-89
2023/07/19 03:13:39;;;;;;;14.55;6.22;;;;;;;21.34;65.61;99324.69;4966858;28;20030;-89
2023/07/19 03:16:05;;;;;;;17.55;6.32;;;;;;;21.40;66.20;99338.97;4967997;28;20022;-89
2023/07/19 03:18:36;;;;;;;14.98;5.82;;;;;;;21.31;66.28;99332.78;4984168;28;20456;-95
2023/07/19 03:21:03;;;;;;;16.98;6.15;;;;;;;21.23;66.73;99328.22;4955816;28;20010;-96
2023/07/19 03:23:34;;;;;;;9.77;6.20;;;;;;;21.22;66.74;99326.63;4988658;28;20058;-96
2023/07/19 03:26:00;;;;;;;11.18;6.25;;;;;;;21.23;67.35;99318.09;4956690;28;20519;-94
2023/07/19 03:28:31;;;;;;;16.08;12.25;;;;;;;21.15;67.79;99297.09;4956318;28;20022;-94
2023/07/19 03:31:35;;;;;;;;;;;;;;;;;;;;;
2023/07/19 03:34:02;;;;;;;8.88;5.93;;;;;;;20.87;68.59;99308.66;5005709;28;20094;-95
2023/07/19 03:36:28;;;;;;;14.35;7.55;;;;;;;20.83;68.80;99326.09;4970924;28;20026;-96
2023/07/19 03:39:06;;;;;;;11.45;6.90;;;;;;;20.71;68.99;99296.75;4971418;28;20408;-96
2023/07/19 03:41:33;;;;;;;9.68;6.40;;;;;;;20.61;68.74;99291.72;4988260;28;20033;-96
2023/07/19 03:43:59;;;;;;;7.85;5.75;;;;;;;20.52;69.46;99294.50;4985954;28;20057;-96
2023/07/19 03:46:25;;;;;;;12.05;6.35;;;;;;;20.66;69.99;99307.94;4968728;28;20489;-96
2023/07/19 03:48:51;;;;;;;9.00;6.03;;;;;;;20.63;70.45;99336.78;4984743;28;20559;-96
2023/07/19 03:51:19;;;;;;;9.30;6.60;;;;;;;20.59;70.04;99311.22;4984586;28;20026;-96
2023/07/19 03:53:48;;;;;;;9.60;7.00;;;;;;;20.54;70.34;99306.75;4983828;28;20042;-96
2023/07/19 03:56:14;;;;;;;12.70;7.15;;;;;;;20.63;70.37;99314.88;4952397;28;20476;-95
2023/07/19 03:58:42;;;;;;;10.77;7.47;;;;;;;20.70;69.71;99314.31;4984725;28;20026;-95
2023/07/19 04:01:08;;;;;;;15.07;8.38;;;;;;;20.89;69.68;99338.44;4967860;28;20061;-95
2023/07/19 04:03:36;;;;;;;17.08;7.57;;;;;;;20.74;69.47;99309.78;4967221;28;20404;-96
2023/07/19 04:06:03;;;;;;;19.30;8.50;;;;;;;20.86;69.35;99315.28;4969136;28;20030;-95
2023/07/19 04:08:29;;;;;;;12.73;7.93;;;;;;;20.98;69.71;99325.47;4969089;28;20030;-96
2023/07/19 04:10:56;;;;;;;26.67;10.02;;;;;;;21.06;68.93;99323.75;4967341;28;20035;-95
2023/07/19 04:13:28;;;;;;;18.50;8.90;;;;;;;20.97;68.95;99310.97;4985233;28;20053;-96
2023/07/19 04:15:54;;;;;;;16.33;9.70;;;;;;;20.98;68.41;99300.84;4998996;28;20104;-96
2023/07/19 04:18:19;;;;;;;16.95;10.05;;;;;;;21.09;67.63;99299.25;4970017;28;20093;-96
2023/07/19 04:20:48;;;;;;;20.50;10.38;;;;;;;21.43;67.74;99335.56;4969224;28;20033;-95
2023/07/19 04:23:15;;;;;;;18.05;10.68;;;;;;;21.33;67.67;99319.56;4985387;28;20042;-96
2023/07/19 04:25:44;;;;;;;15.02;9.13;;;;;;;21.35;68.41;99320.00;4984777;28;20100;-96
2023/07/19 04:28:14;;;;;;;15.63;10.13;;;;;;;21.40;67.91;99328.81;5001158;28;20029;-96
2023/07/19 04:30:39;;;;;;;18.13;11.18;;;;;;;21.58;67.48;99340.38;4986133;28;20093;-96
2023/07/19 04:33:05;;;;;;;18.92;10.48;;;;;;;21.45;67.51;99302.38;4986482;28;20030;-95
2023/07/19 04:35:36;;;;;;;17.55;9.63;;;;;;;21.56;67.47;99322.66;4985056;28;20033;-96
2023/07/19 04:38:04;;;;;;;18.75;9.80;;;;;;;21.62;66.84;99317.75;5002894;28;20069;-96
2023/07/19 04:40:32;;;;;;;17.02;9.93;;;;;;;21.73;66.37;99332.63;4974149;28;20516;-96
2023/07/19 04:43:06;;;;;;;14.00;8.65;;;;;;;21.96;66.14;99352.91;4975628;28;20110;-95
2023/07/19 04:45:32;;;;;;;16.63;9.05;;;;;;;21.87;66.38;99321.28;4971634;28;20030;-94
2023/07/19 04:48:23;;;;;;;19.38;9.20;;;;;;;22.11;66.67;99339.63;4972332;28;20036;-96
2023/07/19 04:51:38;;;;;;;13.90;8.63;;;;;;;22.07;64.80;99323.06;4990475;28;20097;-96
2023/07/19 04:54:02;;;;;;;16.27;8.77;;;;;;;22.20;65.01;99332.06;4983475;28;20040;-96
2023/07/19 04:56:39;;;;;;;12.43;8.23;;;;;;;22.27;64.42;99326.81;4989985;28;20066;-96
2023/07/19 04:59:05;;;;;;;13.85;7.60;;;;;;;22.19;63.74;99308.53;4958768;28;20027;-96
2023/07/19 05:01:31;;;;;;;17.23;8.50;;;;;;;22.31;63.87;99307.72;4956003;28;20033;-96
2023/07/19 05:04:03;;;;;;;14.05;8.27;;;;;;;22.45;64.01;99313.59;4988145;28;20030;-95
2023/07/19 05:07:24;;;;;;;13.48;7.85;;;;;;;22.51;62.22;99283.97;4981484;28;20028;-96
2023/07/19 05:10:08;;;;;;;13.55;7.35;;;;;;;22.78;62.50;99302.31;4983136;28;20038;-96
2023/07/19 05:20:19;;;;;;;7.72;5.72;;;;;;;23.52;58.26;99317.53;4913699;29;20071;-94
2023/07/19 05:22:49;;;;;;;10.30;5.90;;;;;;;23.69;57.55;99310.84;4926564;29;20035;-93
2023/07/19 05:25:15;;;;;;;7.05;5.55;;;;;;;23.85;57.32;99305.34;4912295;29;20019;-95
2023/07/19 05:27:41;;;;;;;9.60;5.40;;;;;;;24.00;56.46;99293.50;4895431;29;20039;-95
2023/07/19 05:30:11;;;;;;;12.25;5.95;;;;;;;24.23;56.94;99314.78;4896775;29;20031;-96
2023/07/19 05:33:01;;;;;;;11.63;6.05;;;;;;;24.44;55.46;99301.44;4946630;28;20121;-96
2023/07/19 05:35:31;;;;;;;9.45;6.28;;;;;;;24.49;55.18;99289.38;4994638;28;20061;-96
2023/07/19 05:38:03;;;;;;;9.38;5.82;;;;;;;24.50;54.75;99283.50;4958984;28;20054;-94
2023/07/19 05:41:31;;;;;;;13.77;5.90;;;;;;;24.71;54.77;99282.31;5006133;28;20018;-96
2023/07/19 05:43:57;;;;;;;9.30;5.43;;;;;;;24.86;55.00;99281.44;4998550;28;20027;-91
2023/07/19 05:46:26;;;;;;;10.10;4.78;;;;;;;25.05;54.53;99285.25;5007202;28;20042;-93
2023/07/19 05:49:05;;;;;;;5.97;5.03;;;;;;;25.09;53.49;99255.81;5013680;28;20423;-96
2023/07/19 05:52:45;;;;;;;13.45;5.18;;;;;;;25.46;53.03;99297.38;4976702;28;20042;-96
2023/07/19 05:58:56;;;;;;;;;;;;;;;;;;;;;
2023/07/19 06:02:08;;;;;;;6.65;4.20;;;;;;;25.76;52.08;99300.19;4901820;29;20447;-91
2023/07/19 06:05:16;;;;;;;9.60;5.05;;;;;;;25.82;52.29;99300.66;4921353;29;20799;-89
2023/07/19 06:07:47;;;;;;;7.05;4.75;;;;;;;25.84;52.38;99289.25;4904804;29;20561;-90
2023/07/19 06:10:16;;;;;;;7.72;4.00;;;;;;;25.80;52.73;99280.94;4886325;29;20461;-90
2023/07/19 06:12:45;;;;;;;8.73;4.25;;;;;;;25.87;53.06;99283.78;4936466;29;20028;-90
2023/07/19 06:15:12;;;;;;;6.60;4.40;;;;;;;25.99;51.72;99294.63;4909636;29;20032;-91
2023/07/19 06:17:37;;;;;;;6.90;4.53;;;;;;;26.18;52.18;99301.16;4940953;29;20035;-90
2023/07/19 06:20:10;;;;;;;12.82;5.00;;;;;;;26.18;51.58;99279.88;4926281;29;20027;-91
2023/07/19 06:22:36;;;;;;;9.18;5.15;;;;;;;26.30;51.08;99291.84;4927400;29;20184;-91
2023/07/19 06:25:01;;;;;;;9.65;5.75;;;;;;;26.32;51.36;99281.22;4933512;29;20027;-89
2023/07/19 06:27:27;;;;;;;15.38;5.93;;;;;;;26.56;50.66;99274.38;4961073;28;20039;-89
2023/07/19 06:29:54;;;;;;;12.18;6.40;;;;;;;26.67;50.31;99271.75;4946081;29;20137;-90
2023/07/19 06:32:19;;;;;;;8.10;5.05;;;;;;;26.72;50.39;99261.16;4965441;28;20520;-89
2023/07/19 06:34:47;;;;;;;12.32;5.90;;;;;;;26.81;50.83;99258.06;4977924;28;20030;-89
2023/07/19 06:37:14;;;;;;;9.60;6.47;;;;;;;27.02;48.57;99240.91;4954555;28;20030;-89
2023/07/19 06:39:39;;;;;;;12.35;6.20;;;;;;;27.32;47.92;99264.84;4956520;28;20034;-90
2023/07/19 06:42:05;;;;;;;7.70;5.50;;;;;;;27.40;47.16;99244.34;4959895;28;20053;-90
2023/07/19 06:44:37;;;;;;;10.75;6.22;;;;;;;27.54;46.92;99247.22;4973842;28;20034;-91
2023/07/19 06:47:04;;;;;;;12.63;6.05;;;;;;;27.42;47.12;99217.09;4982560;28;20037;-91
2023/07/19 06:49:33;;;;;;;6.32;5.28;;;;;;;27.54;47.18;99219.56;4999288;28;20022;-91
2023/07/19 06:52:06;;;;;;;10.23;5.28;;;;;;;27.72;47.06;99222.38;5019037;28;20046;-93
2023/07/19 06:54:33;;;;;;;6.97;4.72;;;;;;;27.91;47.36;99229.63;4999038;28;20034;-93
2023/07/19 06:56:58;;;;;;;12.07;6.40;;;;;;;27.92;46.31;99209.06;4977582;28;20026;-93
2023/07/19 06:59:35;;;;;;;8.82;5.72;;;;;;;28.11;46.03;99218.22;4972429;28;20049;-92
2023/07/19 07:02:05;;;;;;;8.90;5.85;;;;;;;28.34;46.11;99238.06;4987787;28;20058;-91
2023/07/19 07:04:30;;;;;;;9.38;4.90;;;;;;;28.32;46.06;99211.97;4975775;28;20531;-93
2023/07/19 07:06:56;;;;;;;10.73;5.97;;;;;;;28.36;45.91;99229.38;4975441;28;20058;-90
2023/07/19 07:09:27;;;;;;;10.52;5.97;;;;;;;28.49;45.93;99215.94;4985646;28;20550;-91
2023/07/19 07:11:56;;;;;;;7.53;6.13;;;;;;;28.50;46.44;99214.81;4976088;28;20045;-89
2023/07/19 07:14:33;;;;;;;9.23;6.03;;;;;;;28.73;45.49;99222.72;5010753;28;20038;-89
2023/07/19 07:16:59;;;;;;;8.63;5.40;;;;;;;28.85;45.61;99227.88;4979469;28;20077;-92
2023/07/19 07:19:58;;;;;;;;;;;;;;;;;;;;;
2023/07/19 07:22:24;;;;;;;7.80;5.75;;;;;;;29.01;45.17;99228.28;4991549;28;20105;-93
2023/07/19 07:25:00;;;;;;;;;;;;;;;;;;;;;
2023/07/19 07:27:56;;;;;;;10.93;5.90;;;;;;;29.11;44.95;99232.25;4991481;28;20196;-90
2023/07/19 07:30:22;;;;;;;14.25;6.00;;;;;;;28.87;45.60;99208.88;4990194;28;20103;-91
2023/07/19 07:32:54;;;;;;;11.43;6.05;;;;;;;29.05;44.77;99219.94;4975958;28;20030;-91
2023/07/19 07:35:19;;;;;;;10.88;5.70;;;;;;;29.27;44.05;99223.53;4979087;28;20030;-90
2023/07/19 07:37:47;;;;;;;9.77;6.60;;;;;;;29.49;43.98;99226.25;4968171;28;20123;-92
2023/07/19 07:40:32;;;;;;;11.82;5.20;;;;;;;29.33;43.45;99198.97;4984552;28;20085;-91
2023/07/19 07:43:01;;;;;;;13.38;6.18;;;;;;;29.35;44.37;99208.44;4985097;28;20060;-92
2023/07/19 07:45:29;;;;;;;19.90;9.32;;;;;;;29.39;44.55;99203.69;4981852;28;20026;-91
2023/07/19 07:47:57;;;;;;;17.55;6.72;;;;;;;29.45;45.04;99206.03;4969441;28;20034;-89
2023/07/19 07:50:34;;;;;;;8.98;4.25;;;;;;;29.59;43.45;99200.44;5000573;28;20038;-91
2023/07/19 07:53:00;;;;;;;11.45;8.35;;;;;;;29.66;42.69;99196.88;4983653;28;20105;-96
2023/07/19 07:55:37;;;;;;;10.00;4.38;;;;;;;29.86;40.03;99214.66;5006080;28;20038;-92
2023/07/19 07:58:08;;;;;;;7.97;3.38;;;;;;;29.67;41.74;99198.44;4977254;28;20030;-94
2023/07/19 08:00:39;;;;;;;4.68;3.80;;;;;;;29.63;41.52;99190.13;4983352;28;20018;-94
2023/07/19 08:03:14;;;;;;;7.63;3.65;;;;;;;29.90;41.54;99200.75;5010259;28;20098;-95
2023/07/19 08:05:43;;;;;;;8.57;4.65;;;;;;;30.03;41.33;99201.91;5009134;28;20037;-96
2023/07/19 08:08:11;;;;;;;7.47;4.30;;;;;;;30.18;40.45;99208.94;5026623;28;20037;-96
2023/07/19 08:10:40;;;;;;;5.80;3.20;;;;;;;30.27;38.83;99200.16;5009197;28;20022;-96
2023/07/19 08:13:12;;;;;;;9.48;4.22;;;;;;;30.29;40.70;99194.22;4992610;28;20025;-95
2023/07/19 08:16:06;;;;;;;10.05;4.50;;;;;;;30.33;40.41;99179.13;4991399;28;20037;-94
2023/07/19 08:18:34;;;;;;;11.20;4.75;;;;;;;30.60;40.47;99195.22;4984882;28;20065;-90
2023/07/19 08:21:02;;;;;;;6.35;4.97;;;;;;;30.70;39.94;99191.56;4975429;28;20109;-90
2023/07/19 08:23:31;;;;;;;9.52;3.70;;;;;;;30.88;36.40;99201.75;4995339;28;20072;-90
2023/07/19 08:25:58;;;;;;;8.18;3.03;;;;;;;31.07;34.92;99198.41;4975381;28;20481;-91
2023/07/19 08:28:25;;;;;;;3.97;2.70;;;;;;;31.13;31.02;99191.22;4969117;28;20077;-90
2023/07/19 08:30:51;;;;;;;6.57;3.60;;;;;;;31.10;33.42;99178.13;4968714;28;20485;-91
2023/07/19 08:33:21;;;;;;;5.18;3.30;;;;;;;31.08;32.19;99165.84;4983483;28;20511;-91
2023/07/19 08:35:47;;;;;;;8.23;5.13;;;;;;;31.34;36.09;99186.63;4964070;28;20042;-90
2023/07/19 08:38:13;;;;;;;6.25;4.30;;;;;;;31.35;34.54;99171.50;4975232;28;20026;-90
2023/07/19 08:40:41;;;;;;;6.18;3.75;;;;;;;31.31;34.19;99179.88;4989863;28;20037;-91
2023/07/19 08:43:07;;;;;;;5.45;3.42;;;;;;;31.40;33.86;99174.63;4988054;28;20420;-91
2023/07/19 08:45:36;;;;;;;7.43;4.00;;;;;;;31.39;32.90;99177.81;4980188;28;20006;-91
2023/07/19 08:48:03;;;;;;;5.68;3.55;;;;;;;31.39;32.16;99175.03;4979488;28;20060;-90
2023/07/19 08:50:29;;;;;;;8.02;4.95;;;;;;;31.65;32.13;99172.75;4980531;28;20081;-91
2023/07/19 08:53:02;;;;;;;6.03;3.35;;;;;;;31.70;30.77;99155.63;4984994;28;20181;-92
2023/07/19 08:55:39;;;;;;;7.13;4.22;;;;;;;31.75;31.06;99169.06;4988642;28;20377;-92
2023/07/19 08:58:07;;;;;;;8.20;3.28;;;;;;;31.92;31.46;99176.41;4988480;28;20018;-94
2023/07/19 09:01:15;;;;;;;5.35;3.10;;;;;;;31.96;31.21;99179.94;4991270;28;20118;-92
2023/07/19 09:03:41;;;;;;;6.88;3.00;;;;;;;31.84;29.94;99174.94;4988634;28;20034;-92
2023/07/19 09:06:35;;;;;;;5.32;3.55;;;;;;;31.80;30.77;99155.47;4969593;28;20027;-90
2023/07/19 09:09:00;;;;;;;4.43;3.50;;;;;;;31.95;29.86;99170.00;4944892;28;20070;-87
2023/07/19 09:11:27;;;;;;;7.65;3.22;;;;;;;32.08;30.68;99172.25;4971036;28;20391;-89
2023/07/19 09:13:53;;;;;;;7.03;2.70;;;;;;;32.00;28.35;99165.97;4986717;28;20117;-88
2023/07/19 09:16:40;;;;;;;4.20;2.42;;;;;;;32.13;27.50;99172.56;4968104;28;20030;-90
2023/07/19 09:19:06;;;;;;;6.32;2.50;;;;;;;32.07;28.69;99157.53;4980723;28;20030;-89
2023/07/19 09:21:44;;;;;;;4.90;3.13;;;;;;;32.12;30.18;99156.25;4966058;28;20065;-88
2023/07/19 09:24:11;;;;;;;6.18;3.10;;;;;;;32.04;29.05;99135.28;4950578;28;20029;-89
2023/07/19 09:26:53;;;;;;;6.95;3.30;;;;;;;32.36;30.13;99160.69;4966469;28;20026;-89
2023/07/19 09:29:22;;;;;;;7.63;6.30;;;;;;;32.39;29.35;99154.25;4970313;28;20026;-89
2023/07/19 09:31:55;;;;;;;5.78;3.00;;;;;;;32.52;28.62;99146.09;4984358;28;20022;-89
2023/07/19 09:34:44;;;;;;;4.90;2.70;;;;;;;32.49;28.58;99149.72;4968306;28;20022;-89
2023/07/19 09:37:10;;;;;;;5.15;2.47;;;;;;;32.61;29.19;99140.78;4983356;28;20039;-90
2023/07/19 09:39:38;;;;;;;5.78;2.90;;;;;;;32.65;29.32;99137.94;4975368;28;20026;-91
2023/07/19 09:42:05;;;;;;;5.63;2.90;;;;;;;32.63;28.76;99117.28;4982580;28;20030;-91
2023/07/19 09:44:30;;;;;;;4.78;2.80;;;;;;;32.49;28.99;99121.06;4968915;28;20038;-87
2023/07/19 09:47:53;;;;;;;5.03;2.90;;;;;;;32.55;27.81;99145.25;4988349;28;20029;-89
2023/07/19 09:50:51;;;;;;;3.72;2.80;;;;;;;32.64;28.31;99125.19;4926409;29;20052;-94
2023/07/19 09:53:18;;;;;;;4.13;3.03;;;;;;;32.74;28.94;99123.44;4872708;29;20049;-96
2023/07/19 09:55:44;;;;;;;5.10;3.08;;;;;;;32.81;29.63;99124.13;4913918;29;20056;-95
2023/07/19 09:58:16;;;;;;;8.23;3.78;;;;;;;32.71;28.61;99104.78;4879804;29;20199;-96
2023/07/19 10:00:41;;;;;;;4.15;3.03;;;;;;;32.68;29.26;99109.19;4886649;29;20046;-96
2023/07/19 10:03:08;;;;;;;4.05;2.90;;;;;;;32.65;28.71;99110.06;4887019;29;20032;-96
2023/07/19 10:05:42;;;;;;;5.20;2.72;;;;;;;32.71;28.90;99102.78;4884986;29;20016;-95
2023/07/19 10:08:08;;;;;;;6.95;4.95;;;;;;;32.86;27.62;99108.88;4903782;29;20044;-95
2023/07/19 10:10:41;;;;;;;5.57;2.75;;;;;;;32.90;27.90;99084.50;4903892;29;20047;-96
2023/07/19 10:13:07;;;;;;;10.00;3.10;;;;;;;33.02;27.82;99077.53;4900245;29;20503;-89
2023/07/19 10:15:38;;;;;;;7.07;3.97;;;;;;;33.22;27.82;99086.72;4893546;29;20071;-89
2023/07/19 10:18:24;;;;;;;;;;;;;;;33.47;27.06;99104.13;4894907;29;20509;-92
2023/07/19 10:21:38;;;;;;;7.38;2.78;;;;;;;33.34;27.37;99082.47;4929877;29;19921;-89
2023/07/19 10:24:09;;;;;;;4.45;2.75;;;;;;;33.38;27.21;99076.81;4939346;28;20573;-91
2023/07/19 10:26:38;;;;;;;4.45;2.58;;;;;;;33.41;27.09;99073.97;4988573;28;20049;-89
2023/07/19 10:29:04;;;;;;;4.13;2.80;;;;;;;33.68;26.90;99091.75;4969023;28;20492;-90
2023/07/19 10:31:55;;;;;;;4.97;2.80;;;;;;;33.60;26.16;99091.09;4985706;28;20026;-89
2023/07/19 10:34:42;;;;;;;4.13;3.03;;;;;;;33.51;26.98;99086.09;4986421;28;20082;-89
2023/07/19 10:37:14;;;;;;;6.13;2.90;;;;;;;33.36;26.44;99062.50;4969633;28;20483;-90
2023/07/19 10:39:42;;;;;;;9.18;5.97;;;;;;;33.49;26.64;99071.78;4976154;28;20392;-93
2023/07/19 10:42:40;;;;;;;;;;;;;;;;;;;;;
2023/07/19 10:45:08;;;;;;;5.13;2.58;;;;;;;33.52;27.18;99064.56;5010355;28;20468;-91
2023/07/19 10:47:37;;;;;;;4.95;2.80;;;;;;;33.57;28.48;99059.22;4977620;28;20025;-88
2023/07/19 10:50:05;;;;;;;4.68;2.85;;;;;;;33.68;26.47;99056.25;4972040;28;20029;-92
2023/07/19 10:52:31;;;;;;;4.35;2.65;;;;;;;33.67;27.75;99051.09;4974054;28;20096;-89
2023/07/19 10:55:26;;;;;;;6.00;2.80;;;;;;;33.79;27.45;99072.75;4974060;28;20049;-89
2023/07/19 10:58:03;;;;;;;3.90;2.50;;;;;;;33.79;27.21;99048.41;4985789;28;20148;-95
2023/07/19 11:00:29;;;;;;;4.20;2.53;;;;;;;34.00;27.29;99049.91;4973003;28;20540;-95
2023/07/19 11:03:49;;;;;;;6.88;3.47;;;;;;;34.16;26.71;99060.34;4971274;28;20038;-93
2023/07/19 11:06:15;;;;;;;4.57;2.40;;;;;;;34.26;25.92;99046.50;4937625;29;20035;-96
2023/07/19 11:08:40;;;;;;;4.30;2.58;;;;;;;34.38;25.37;99046.59;4961607;29;20042;-94
2023/07/19 11:11:10;;;;;;;5.00;3.38;;;;;;;34.31;25.72;99038.41;4985477;28;20101;-94
2023/07/19 11:13:37;;;;;;;4.13;2.70;;;;;;;34.32;26.78;99037.16;4990759;28;20037;-93
2023/07/19 11:22:51;;;;;;;7.70;2.67;;;;;;;34.38;26.93;99026.25;4995117;28;20058;-96
2023/07/19 11:25:39;;;;;;;4.95;2.88;;;;;;;34.45;25.60;99036.44;4965841;28;20031;-96
2023/07/19 11:28:08;;;;;;;5.13;2.67;;;;;;;34.30;26.40;99020.03;4999266;28;20037;-96
2023/07/19 11:31:10;;;;;;;3.88;2.50;;;;;;;34.37;26.07;99017.06;4971589;28;20471;-91
2023/07/19 11:33:36;;;;;;;3.80;2.78;;;;;;;34.36;25.93;99011.91;4927322;29;20050;-90
2023/07/19 11:36:23;;;;;;;5.78;2.80;;;;;;;34.32;25.55;99002.84;4927032;29;20140;-91
2023/07/19 11:39:04;;;;;;;3.50;2.67;;;;;;;34.43;26.00;99008.94;4922830;29;20040;-89
2023/07/19 11:41:33;;;;;;;;;;;;;;;34.54;24.70;99022.63;4907936;29;20032;-90
2023/07/19 11:43:58;;;;;;;5.00;2.75;;;;;;;34.28;25.67;99000.13;4962916;29;19917;-90
2023/07/19 11:46:27;;;;;;;4.68;2.55;;;;;;;34.44;25.60;99006.94;4960662;29;20486;-89
2023/07/19 11:48:58;;;;;;;4.07;2.40;;;;;;;34.41;25.37;99006.59;4935815;29;20036;-90
2023/07/19 11:51:23;;;;;;;5.28;2.67;;;;;;;34.29;26.38;98993.31;4954483;29;20024;-91
2023/07/19 11:54:16;;;;;;;6.22;2.47;;;;;;;34.32;25.74;98986.84;4940623;29;20087;-89
2023/07/19 12:01:22;;;;;;;4.82;2.38;;;;;;;34.47;24.48;98976.09;4812407;29;20782;-89
2023/07/19 12:03:53;;;;;;;3.75;2.67;;;;;;;34.54;24.38;98987.06;4752890;29;20030;-91
2023/07/19 12:06:25;;;;;;;6.57;2.83;;;;;;;34.55;24.37;98977.47;4795464;29;20744;-90
2023/07/19 12:08:50;;;;;;;4.68;2.50;;;;;;;34.38;23.98;98990.69;4922304;28;20085;-90
2023/07/19 12:11:19;;;;;;;5.45;2.88;;;;;;;34.32;24.52;98978.47;4989490;28;20038;-90
2023/07/19 12:13:44;;;;;;;6.68;3.20;;;;;;;34.51;25.09;98982.38;4978979;28;20128;-90
2023/07/19 12:23:16;;;;;;;7.45;3.10;;;;;;;34.89;26.37;98973.34;4935439;29;20055;-92
2023/07/19 12:25:42;;;;;;;3.53;2.47;;;;;;;34.97;25.81;98957.13;4945181;29;20109;-90